Time;durP1;ratioP1;P1;durP2;ratioP2;P2;SDS_P1;SDS_P2;PMS_P1;PMS_P2;Temp;Humidity;BMP_temperature;BMP_pressure;BME280_temperature;BME280_humidity;BME280_pressure;Samples;Min_cycle;Max_cycle;Signal;HPM_P1;HPM_P2
2023/05/20 00:00:09;;;;;;;15.43;6.60;;;;;;;;;;5034330;28;20046;-68
2023/05/20 00:02:36;;;;;;;14.45;6.72;;;;;;;;;;5031972;28;20044;-68
2023/05/20 00:05:02;;;;;;;16.25;7.03;;;;;;;;;;5029800;28;20392;-68
2023/05/20 00:07:28;;;;;;;14.00;6.68;;;;;;;;;;5030667;28;20049;-68
2023/05/20 00:09:54;;;;;;;16.33;7.18;;;;;;;;;;5032896;28;20049;-68
2023/05/20 00:12:20;;;;;;;14.18;6.95;;;;;;;;;;5033055;28;20048;-68
2023/05/20 00:14:46;;;;;;;16.48;6.32;;;;;;;;;;5027262;28;20045;-68
2023/05/20 00:17:12;;;;;;;13.82;7.28;;;;;;;;;;5029721;28;20076;-69
2023/05/20 00:19:39;;;;;;;15.13;6.85;;;;;;;;;;5029877;28;20049;-68
2023/05/20 00:22:05;;;;;;;15.55;6.25;;;;;;;;;;5031354;28;20110;-68
2023/05/20 00:24:31;;;;;;;12.75;6.93;;;;;;;;;;5013651;28;20129;-68
2023/05/20 00:26:57;;;;;;;13.77;6.30;;;;;;;;;;5032723;28;20044;-68
2023/05/20 00:29:23;;;;;;;14.10;6.03;;;;;;;;;;5014895;28;20049;-68
2023/05/20 00:31:49;;;;;;;14.02;6.35;;;;;;;;;;5032213;28;20049;-68
2023/05/20 00:34:15;;;;;;;11.25;5.82;;;;;;;;;;5032508;28;20170;-68
2023/05/20 00:36:41;;;;;;;15.55;5.93;;;;;;;;;;5031090;28;20044;-68
2023/05/20 00:39:08;;;;;;;15.65;6.00;;;;;;;;;;5030899;28;20038;-68
2023/05/20 00:41:34;;;;;;;16.25;5.97;;;;;;;;;;5031733;28;20057;-68
2023/05/20 00:44:00;;;;;;;13.52;6.40;;;;;;;;;;5013711;28;20053;-69
2023/05/20 00:46:28;;;;;;;12.60;6.13;;;;;;;;;;5028920;28;20423;-68
2023/05/20 00:48:54;;;;;;;10.20;5.50;;;;;;;;;;5029871;28;20510;-68
2023/05/20 00:51:21;;;;;;;14.07;6.07;;;;;;;;;;5031982;28;20048;-68
2023/05/20 00:53:47;;;;;;;14.55;5.90;;;;;;;;;;5028560;28;20046;-68
2023/05/20 00:56:14;;;;;;;15.15;5.95;;;;;;;;;;5031945;28;20392;-68
2023/05/20 00:58:40;;;;;;;13.15;5.60;;;;;;;;;;5032089;28;20046;-69
2023/05/20 01:01:06;;;;;;;13.13;5.65;;;;;;;;;;5035848;28;20119;-68
2023/05/20 01:03:32;;;;;;;10.68;5.18;;;;;;;;;;5030196;28;20077;-68
2023/05/20 01:05:58;;;;;;;10.30;5.22;;;;;;;;;;5014791;28;20056;-68
2023/05/20 01:08:25;;;;;;;14.07;5.72;;;;;;;;;;5046174;28;20064;-68
2023/05/20 01:10:57;;;;;;;11.20;5.47;;;;;;;;;;5024261;28;20045;-68
2023/05/20 01:13:28;;;;;;;10.65;5.60;;;;;;;;;;5023495;28;20049;-68
2023/05/20 01:15:55;;;;;;;10.65;4.97;;;;;;;;;;5029298;28;20049;-68
2023/05/20 01:18:24;;;;;;;9.88;5.35;;;;;;;;;;5025787;28;20045;-68
2023/05/20 01:20:51;;;;;;;11.65;5.63;;;;;;;;;;5022233;28;20505;-68
2023/05/20 01:23:17;;;;;;;15.18;5.32;;;;;;;;;;5006380;28;20479;-68
2023/05/20 01:25:43;;;;;;;12.63;5.70;;;;;;;;;;5023551;28;20535;-69
2023/05/20 01:28:16;;;;;;;11.32;5.10;;;;;;;;;;5006106;28;20049;-68
2023/05/20 01:30:43;;;;;;;13.43;5.13;;;;;;;;;;5022874;28;20049;-68
2023/05/20 01:33:11;;;;;;;8.45;4.75;;;;;;;;;;5023241;28;20546;-68
2023/05/20 01:35:38;;;;;;;11.10;4.90;;;;;;;;;;5005943;28;20100;-68
2023/05/20 01:38:05;;;;;;;13.57;5.95;;;;;;;;;;4989941;28;20060;-68
2023/05/20 01:40:32;;;;;;;9.82;4.90;;;;;;;;;;4987751;28;20050;-68
2023/05/20 01:42:59;;;;;;;9.50;4.60;;;;;;;;;;5026625;28;20470;-68
2023/05/20 01:45:25;;;;;;;11.00;4.63;;;;;;;;;;5040123;28;20055;-69
2023/05/20 01:47:51;;;;;;;9.95;5.25;;;;;;;;;;5032637;28;20046;-68
2023/05/20 01:50:17;;;;;;;10.02;5.03;;;;;;;;;;5031372;28;20450;-68
2023/05/20 01:52:43;;;;;;;12.70;5.50;;;;;;;;;;5032258;28;20045;-68
2023/05/20 01:55:10;;;;;;;11.73;5.35;;;;;;;;;;5027700;28;20044;-68
2023/05/20 01:57:36;;;;;;;11.10;5.00;;;;;;;;;;5032152;28;20124;-68
2023/05/20 02:00:02;;;;;;;11.43;5.07;;;;;;;;;;5031119;28;20044;-68
2023/05/20 02:02:28;;;;;;;10.32;5.18;;;;;;;;;;5032041;28;20037;-68
2023/05/20 02:04:54;;;;;;;13.65;5.10;;;;;;;;;;5030417;28;20042;-68
2023/05/20 02:07:20;;;;;;;12.55;4.90;;;;;;;;;;5030496;28;20042;-69
2023/05/20 02:09:47;;;;;;;8.85;4.68;;;;;;;;;;5029717;28;20499;-68
2023/05/20 02:12:16;;;;;;;11.68;4.93;;;;;;;;;;5013523;28;20514;-68
2023/05/20 02:14:46;;;;;;;11.00;5.00;;;;;;;;;;5030027;28;20107;-68
2023/05/20 02:17:15;;;;;;;10.57;4.90;;;;;;;;;;5017859;28;20053;-68
2023/05/20 02:19:41;;;;;;;10.10;5.30;;;;;;;;;;5030778;28;20376;-68
2023/05/20 02:22:07;;;;;;;11.63;5.03;;;;;;;;;;5030863;28;20399;-68
2023/05/20 02:24:33;;;;;;;9.57;4.80;;;;;;;;;;5030900;28;20458;-68
2023/05/20 02:27:00;;;;;;;11.48;4.38;;;;;;;;;;5031821;28;20048;-68
2023/05/20 02:29:26;;;;;;;9.68;4.55;;;;;;;;;;5013390;28;20483;-67
2023/05/20 02:31:52;;;;;;;10.18;5.05;;;;;;;;;;5030087;28;20399;-67
2023/05/20 02:34:18;;;;;;;10.80;5.10;;;;;;;;;;5011779;28;20057;-68
2023/05/20 02:36:44;;;;;;;10.55;4.68;;;;;;;;;;5030830;28;20495;-68
2023/05/20 02:39:11;;;;;;;9.68;4.72;;;;;;;;;;5031595;28;20508;-67
2023/05/20 02:41:37;;;;;;;9.90;4.43;;;;;;;;;;4999019;28;20054;-68
2023/05/20 02:44:03;;;;;;;9.82;4.40;;;;;;;;;;5029671;28;20049;-68
2023/05/20 02:46:29;;;;;;;12.48;5.13;;;;;;;;;;5033010;28;20057;-68
2023/05/20 02:48:55;;;;;;;10.90;5.28;;;;;;;;;;5034062;28;20091;-68
2023/05/20 02:51:21;;;;;;;12.77;4.90;;;;;;;;;;5035254;28;20045;-70
2023/05/20 02:53:47;;;;;;;10.25;4.30;;;;;;;;;;5028734;28;20045;-68
2023/05/20 02:56:13;;;;;;;10.57;5.20;;;;;;;;;;5034548;28;20149;-68
2023/05/20 02:58:40;;;;;;;9.40;4.72;;;;;;;;;;5035365;28;20092;-68
2023/05/20 03:01:06;;;;;;;9.77;4.30;;;;;;;;;;5011448;28;20128;-68
2023/05/20 03:03:33;;;;;;;9.13;4.28;;;;;;;;;;5034849;28;20088;-68
2023/05/20 03:05:59;;;;;;;9.40;4.18;;;;;;;;;;5016413;28;20049;-68
2023/05/20 03:08:25;;;;;;;8.48;4.20;;;;;;;;;;5034245;28;20052;-68
2023/05/20 03:10:51;;;;;;;11.93;4.30;;;;;;;;;;5033452;28;20380;-68
2023/05/20 03:13:17;;;;;;;10.13;4.38;;;;;;;;;;5032996;28;20064;-68
2023/05/20 03:15:44;;;;;;;9.18;4.15;;;;;;;;;;5033685;28;20451;-68
2023/05/20 03:18:11;;;;;;;11.10;4.30;;;;;;;;;;5034490;28;20065;-68
2023/05/20 03:20:37;;;;;;;11.02;4.25;;;;;;;;;;5014546;28;20045;-68
2023/05/20 03:23:06;;;;;;;10.00;4.70;;;;;;;;;;5032137;28;20083;-69
2023/05/20 03:25:32;;;;;;;10.65;4.13;;;;;;;;;;5032100;28;20510;-68
2023/05/20 03:27:58;;;;;;;7.38;4.18;;;;;;;;;;5023439;28;20427;-68
2023/05/20 03:30:25;;;;;;;9.27;3.88;;;;;;;;;;5031531;28;20579;-67
2023/05/20 03:32:51;;;;;;;8.70;4.05;;;;;;;;;;5031676;28;20042;-68
2023/05/20 03:35:17;;;;;;;10.40;3.58;;;;;;;;;;5031829;28;20049;-68
2023/05/20 03:37:43;;;;;;;8.55;3.72;;;;;;;;;;5031703;28;20107;-69
2023/05/20 03:40:09;;;;;;;9.85;3.58;;;;;;;;;;5029527;28;20045;-68
2023/05/20 03:42:36;;;;;;;7.70;3.53;;;;;;;;;;5030866;28;20422;-68
2023/05/20 03:45:02;;;;;;;8.30;3.65;;;;;;;;;;5034334;28;20154;-69
2023/05/20 03:47:28;;;;;;;15.48;4.18;;;;;;;;;;5052981;28;20048;-68
2023/05/20 03:49:54;;;;;;;8.75;3.95;;;;;;;;;;5044444;28;20049;-68
2023/05/20 03:52:20;;;;;;;9.98;3.65;;;;;;;;;;5033442;28;20042;-68
2023/05/20 03:54:46;;;;;;;13.05;3.85;;;;;;;;;;5032844;28;20133;-68
2023/05/20 03:57:12;;;;;;;11.00;3.50;;;;;;;;;;5026751;28;20459;-68
2023/05/20 03:59:39;;;;;;;7.57;3.85;;;;;;;;;;5033345;28;20450;-68
2023/05/20 04:02:05;;;;;;;8.63;3.92;;;;;;;;;;5032887;28;20124;-69
2023/05/20 04:04:31;;;;;;;10.30;4.10;;;;;;;;;;5033233;28;20041;-68
2023/05/20 04:07:02;;;;;;;5.95;3.55;;;;;;;;;;5015358;28;20045;-68
2023/05/20 04:09:28;;;;;;;8.75;4.00;;;;;;;;;;5032667;28;20129;-68
2023/05/20 04:11:54;;;;;;;7.53;3.92;;;;;;;;;;5031925;28;20095;-68
2023/05/20 04:14:20;;;;;;;9.32;4.03;;;;;;;;;;5024784;28;20081;-68
2023/05/20 04:16:46;;;;;;;7.53;3.30;;;;;;;;;;5030879;28;20087;-68
2023/05/20 04:19:12;;;;;;;7.00;3.30;;;;;;;;;;5032284;28;20079;-68
2023/05/20 04:21:38;;;;;;;7.43;3.55;;;;;;;;;;5032475;28;20049;-68
2023/05/20 04:24:05;;;;;;;9.63;3.45;;;;;;;;;;5029968;28;20081;-68
2023/05/20 04:26:32;;;;;;;7.70;3.25;;;;;;;;;;5015515;28;20120;-69
2023/05/20 04:29:00;;;;;;;7.43;3.20;;;;;;;;;;5014038;28;20044;-68
2023/05/20 04:31:26;;;;;;;9.02;3.10;;;;;;;;;;5031030;28;20053;-68
2023/05/20 04:33:53;;;;;;;6.50;2.80;;;;;;;;;;5031354;28;20099;-69
2023/05/20 04:36:19;;;;;;;7.72;3.35;;;;;;;;;;5031229;28;20064;-68
2023/05/20 04:38:47;;;;;;;8.60;2.72;;;;;;;;;;5025642;28;20053;-68
2023/05/20 04:41:14;;;;;;;7.50;2.95;;;;;;;;;;5021408;28;20411;-68
2023/05/20 04:43:41;;;;;;;8.23;2.53;;;;;;;;;;5030659;28;20542;-68
2023/05/20 04:46:08;;;;;;;7.30;3.10;;;;;;;;;;5030033;28;20058;-68
2023/05/20 04:48:35;;;;;;;7.68;2.97;;;;;;;;;;5031036;28;20042;-68
2023/05/20 04:51:01;;;;;;;7.32;2.63;;;;;;;;;;5021363;28;20515;-68
2023/05/20 04:53:29;;;;;;;7.72;2.72;;;;;;;;;;5027730;28;20048;-68
2023/05/20 04:55:55;;;;;;;5.90;2.47;;;;;;;;;;5030315;28;20499;-68
2023/05/20 04:58:23;;;;;;;6.68;2.75;;;;;;;;;;5030443;28;20381;-68
2023/05/20 05:00:50;;;;;;;7.35;2.60;;;;;;;;;;5029866;28;20041;-68
2023/05/20 05:03:16;;;;;;;5.15;2.63;;;;;;;;;;5025470;28;20446;-67
2023/05/20 05:05:42;;;;;;;8.95;2.63;;;;;;;;;;5028641;28;20038;-67
2023/05/20 05:08:10;;;;;;;6.28;2.38;;;;;;;;;;5030311;28;20049;-68
2023/05/20 05:10:36;;;;;;;7.82;2.40;;;;;;;;;;5024400;28;20045;-68
2023/05/20 05:13:03;;;;;;;8.73;2.80;;;;;;;;;;5029606;28;20041;-68
2023/05/20 05:15:29;;;;;;;5.68;2.20;;;;;;;;;;5009486;28;20046;-69
2023/05/20 05:17:55;;;;;;;8.65;2.38;;;;;;;;;;5031239;28;20499;-68
2023/05/20 05:20:21;;;;;;;6.05;2.28;;;;;;;;;;5027149;28;20049;-68
2023/05/20 05:22:49;;;;;;;5.07;2.10;;;;;;;;;;5028459;28;20040;-68
2023/05/20 05:25:15;;;;;;;7.15;2.10;;;;;;;;;;5027202;28;20561;-68
2023/05/20 05:27:41;;;;;;;6.68;2.00;;;;;;;;;;5025210;28;20523;-68
2023/05/20 05:30:07;;;;;;;10.50;2.20;;;;;;;;;;5025514;28;20121;-68
2023/05/20 05:32:33;;;;;;;4.80;1.90;;;;;;;;;;5027305;28;20056;-69
2023/05/20 05:35:00;;;;;;;6.13;1.85;;;;;;;;;;5025336;28;20371;-68
2023/05/20 05:37:26;;;;;;;5.15;1.77;;;;;;;;;;5029496;28;20144;-68
2023/05/20 05:39:52;;;;;;;4.32;1.70;;;;;;;;;;5027287;28;20049;-68
2023/05/20 05:42:18;;;;;;;5.43;2.05;;;;;;;;;;5027012;28;20057;-69
2023/05/20 05:44:44;;;;;;;5.47;1.92;;;;;;;;;;5038154;28;20063;-70
2023/05/20 05:47:10;;;;;;;6.68;2.08;;;;;;;;;;5016294;28;20476;-69
2023/05/20 05:49:36;;;;;;;7.40;1.75;;;;;;;;;;5031306;28;20128;-69
2023/05/20 05:52:03;;;;;;;5.07;1.83;;;;;;;;;;5028216;28;20041;-69
2023/05/20 05:54:28;;;;;;;5.13;1.77;;;;;;;;;;5031215;28;20137;-70
2023/05/20 05:56:58;;;;;;;6.78;1.67;;;;;;;;;;5030451;28;20466;-69
2023/05/20 05:59:24;;;;;;;4.72;1.80;;;;;;;;;;5024179;28;20077;-69
2023/05/20 06:01:50;;;;;;;5.90;1.92;;;;;;;;;;5027479;28;20108;-68
2023/05/20 06:04:16;;;;;;;5.72;1.75;;;;;;;;;;5028830;28;20041;-68
2023/05/20 06:06:42;;;;;;;5.80;1.92;;;;;;;;;;5029901;28;20069;-68
2023/05/20 06:09:08;;;;;;;4.70;1.80;;;;;;;;;;5024590;28;20038;-68
2023/05/20 06:11:34;;;;;;;5.55;1.80;;;;;;;;;;5012993;28;20173;-68
2023/05/20 06:14:01;;;;;;;5.97;1.80;;;;;;;;;;5009861;28;20061;-68
2023/05/20 06:16:27;;;;;;;3.63;1.42;;;;;;;;;;5036048;28;20076;-68
2023/05/20 06:18:56;;;;;;;4.20;1.67;;;;;;;;;;5033533;28;20050;-68
2023/05/20 06:21:22;;;;;;;5.85;1.65;;;;;;;;;;5045772;28;20049;-68
2023/05/20 06:23:48;;;;;;;5.70;1.85;;;;;;;;;;5044447;28;20045;-68
2023/05/20 06:26:14;;;;;;;4.50;1.63;;;;;;;;;;5040373;28;20076;-69
2023/05/20 06:28:40;;;;;;;6.28;1.70;;;;;;;;;;5031405;28;20523;-69
2023/05/20 06:31:07;;;;;;;5.13;1.83;;;;;;;;;;5033265;28;20056;-68
2023/05/20 06:33:33;;;;;;;5.20;1.92;;;;;;;;;;5032657;28;20037;-69
2023/05/20 06:36:00;;;;;;;7.72;2.00;;;;;;;;;;5033195;28;20045;-69
2023/05/20 06:38:26;;;;;;;4.72;2.00;;;;;;;;;;5034649;28;20107;-68
2023/05/20 06:40:52;;;;;;;4.65;1.90;;;;;;;;;;5031211;28;20496;-69
2023/05/20 06:43:19;;;;;;;4.75;1.73;;;;;;;;;;5034090;28;20650;-69
2023/05/20 06:45:45;;;;;;;4.40;1.70;;;;;;;;;;5033539;28;20045;-69
2023/05/20 06:48:11;;;;;;;5.15;1.80;;;;;;;;;;5028842;28;20041;-69
2023/05/20 06:50:37;;;;;;;4.78;2.03;;;;;;;;;;5034489;28;20057;-70
2023/05/20 06:53:03;;;;;;;5.03;1.80;;;;;;;;;;5031788;28;20033;-69
2023/05/20 06:55:29;;;;;;;6.15;1.90;;;;;;;;;;5032466;28;20040;-69
2023/05/20 06:57:55;;;;;;;4.80;1.85;;;;;;;;;;5034492;28;20045;-70
2023/05/20 07:00:21;;;;;;;5.05;1.90;;;;;;;;;;5033748;28;20490;-69
2023/05/20 07:02:47;;;;;;;5.95;1.90;;;;;;;;;;5033742;28;20037;-69
2023/05/20 07:05:13;;;;;;;4.50;1.48;;;;;;;;;;5034692;28;20076;-70
2023/05/20 07:07:40;;;;;;;5.65;1.70;;;;;;;;;;5035210;28;20509;-69
2023/05/20 07:10:06;;;;;;;4.53;1.58;;;;;;;;;;5016604;28;20472;-69
2023/05/20 07:12:33;;;;;;;9.77;2.30;;;;;;;;;;5034359;28;20065;-69
2023/05/20 07:15:00;;;;;;;4.93;2.00;;;;;;;;;;5020618;28;20041;-70
2023/05/20 07:17:28;;;;;;;4.65;2.00;;;;;;;;;;5034504;28;20049;-69
2023/05/20 07:19:54;;;;;;;7.03;2.05;;;;;;;;;;5034080;28;20041;-69
2023/05/20 07:22:20;;;;;;;6.50;1.88;;;;;;;;;;5031792;28;20049;-69
2023/05/20 07:24:46;;;;;;;6.47;2.30;;;;;;;;;;5042376;28;20492;-70
2023/05/20 07:27:12;;;;;;;8.18;2.33;;;;;;;;;;5053765;28;20056;-69
2023/05/20 07:29:38;;;;;;;4.20;2.03;;;;;;;;;;5052011;28;20060;-70
2023/05/20 07:32:05;;;;;;;6.63;2.10;;;;;;;;;;5019517;28;20045;-70
2023/05/20 07:34:31;;;;;;;6.90;1.98;;;;;;;;;;5019120;28;20051;-69
2023/05/20 07:36:57;;;;;;;7.88;2.00;;;;;;;;;;5034969;28;20119;-69
2023/05/20 07:39:24;;;;;;;7.47;2.08;;;;;;;;;;5033543;28;20052;-70
2023/05/20 07:41:50;;;;;;;5.65;2.10;;;;;;;;;;5033136;28;20107;-69
2023/05/20 07:44:17;;;;;;;5.38;2.20;;;;;;;;;;5034092;28;20060;-70
2023/05/20 07:46:44;;;;;;;7.75;2.40;;;;;;;;;;5033164;28;20057;-70
2023/05/20 07:49:10;;;;;;;7.15;2.22;;;;;;;;;;5032875;28;20041;-70
2023/05/20 07:51:40;;;;;;;5.63;2.20;;;;;;;;;;5032112;28;20045;-70
2023/05/20 07:54:06;;;;;;;4.28;2.10;;;;;;;;;;5049741;28;20052;-70
2023/05/20 07:56:32;;;;;;;5.10;2.15;;;;;;;;;;5051064;28;20444;-70
2023/05/20 07:58:59;;;;;;;6.63;2.55;;;;;;;;;;5034069;28;20221;-70
2023/05/20 08:01:26;;;;;;;5.20;2.30;;;;;;;;;;5034323;28;20113;-70
2023/05/20 08:03:52;;;;;;;5.35;2.30;;;;;;;;;;4998742;28;20407;-70
2023/05/20 08:06:23;;;;;;;5.70;2.20;;;;;;;;;;5033558;28;20432;-70
2023/05/20 08:08:49;;;;;;;6.53;2.33;;;;;;;;;;5014959;28;20049;-70
2023/05/20 08:11:15;;;;;;;7.38;2.50;;;;;;;;;;5028342;28;20092;-70
2023/05/20 08:13:41;;;;;;;7.97;2.67;;;;;;;;;;5049041;28;20095;-69
2023/05/20 08:16:07;;;;;;;6.30;2.40;;;;;;;;;;5036654;28;20063;-71
2023/05/20 08:18:35;;;;;;;7.05;2.60;;;;;;;;;;5028239;28;20112;-71
2023/05/20 08:21:01;;;;;;;5.35;2.53;;;;;;;;;;5032244;28;20056;-71
2023/05/20 08:23:27;;;;;;;6.88;2.42;;;;;;;;;;5032921;28;20048;-71
2023/05/20 08:25:53;;;;;;;5.07;2.33;;;;;;;;;;5027503;28;20048;-71
2023/05/20 08:28:20;;;;;;;5.60;2.75;;;;;;;;;;5032722;28;20384;-71
2023/05/20 08:30:47;;;;;;;6.65;2.17;;;;;;;;;;5025266;28;20128;-70
2023/05/20 08:33:13;;;;;;;5.78;2.15;;;;;;;;;;5031258;28;20046;-70
2023/05/20 08:35:39;;;;;;;6.50;2.70;;;;;;;;;;5032168;28;20103;-69
2023/05/20 08:38:06;;;;;;;9.65;2.40;;;;;;;;;;5031364;28;20523;-69
2023/05/20 08:40:35;;;;;;;7.32;2.63;;;;;;;;;;5031029;28;20049;-70
2023/05/20 08:43:01;;;;;;;8.43;2.95;;;;;;;;;;5032274;28;20067;-69
2023/05/20 08:45:27;;;;;;;6.78;2.70;;;;;;;;;;5031649;28;20073;-69
2023/05/20 08:47:53;;;;;;;5.53;2.70;;;;;;;;;;5032579;28;20045;-69
2023/05/20 08:50:20;;;;;;;4.78;2.20;;;;;;;;;;5031258;28;20499;-69
2023/05/20 08:52:50;;;;;;;8.98;2.72;;;;;;;;;;5031487;28;20060;-69
2023/05/20 08:55:28;;;;;;;7.78;2.78;;;;;;;;;;5032768;28;20053;-70
2023/05/20 08:57:55;;;;;;;8.38;2.90;;;;;;;;;;5032515;28;20037;-69
2023/05/20 09:00:27;;;;;;;6.75;2.80;;;;;;;;;;5032384;28;20037;-70
2023/05/20 09:02:54;;;;;;;6.28;2.50;;;;;;;;;;5031804;28;20041;-69
2023/05/20 09:05:20;;;;;;;5.82;2.50;;;;;;;;;;5032139;28;20175;-69
2023/05/20 09:07:46;;;;;;;6.65;2.42;;;;;;;;;;5031670;28;20556;-70
2023/05/20 09:10:12;;;;;;;5.30;2.30;;;;;;;;;;5031938;28;20096;-70
2023/05/20 09:12:38;;;;;;;5.55;2.42;;;;;;;;;;4998195;28;20502;-70
2023/05/20 09:15:05;;;;;;;8.73;2.85;;;;;;;;;;5014217;28;20046;-70
2023/05/20 09:17:31;;;;;;;7.10;2.83;;;;;;;;;;5031990;28;20041;-70
2023/05/20 09:19:57;;;;;;;6.45;2.67;;;;;;;;;;5030065;28;20064;-70
2023/05/20 09:22:23;;;;;;;9.13;2.72;;;;;;;;;;5018784;28;20049;-70
2023/05/20 09:24:51;;;;;;;7.00;2.30;;;;;;;;;;5032117;28;20049;-70
2023/05/20 09:27:17;;;;;;;6.00;2.60;;;;;;;;;;5031757;28;20407;-70
2023/05/20 09:29:43;;;;;;;5.82;2.10;;;;;;;;;;5040370;28;20483;-70
2023/05/20 09:32:10;;;;;;;9.13;2.53;;;;;;;;;;5051792;28;20053;-70
2023/05/20 09:34:44;;;;;;;7.85;1.92;;;;;;;;;;5017183;28;20045;-70
2023/05/20 09:37:10;;;;;;;7.28;2.20;;;;;;;;;;5017796;28;20044;-70
2023/05/20 09:39:44;;;;;;;9.02;2.47;;;;;;;;;;5014003;28;20057;-69
2023/05/20 09:42:22;;;;;;;11.50;2.33;;;;;;;;;;5031798;28;20074;-69
2023/05/20 09:44:50;;;;;;;5.93;1.88;;;;;;;;;;5048570;28;20101;-69
2023/05/20 09:47:16;;;;;;;7.90;2.35;;;;;;;;;;5051536;28;20129;-70
2023/05/20 09:49:43;;;;;;;7.70;2.25;;;;;;;;;;5033420;28;20068;-70
2023/05/20 09:52:09;;;;;;;6.63;2.38;;;;;;;;;;5032068;28;20403;-69
2023/05/20 09:54:36;;;;;;;8.40;2.10;;;;;;;;;;5035899;28;20471;-69
2023/05/20 09:57:02;;;;;;;8.45;2.25;;;;;;;;;;5035736;28;20041;-70
2023/05/20 09:59:29;;;;;;;8.38;2.20;;;;;;;;;;5034550;28;21013;-69
2023/05/20 10:01:55;;;;;;;9.30;2.10;;;;;;;;;;5034730;28;20055;-70
2023/05/20 10:04:22;;;;;;;9.35;2.20;;;;;;;;;;5035760;28;20053;-70
2023/05/20 10:07:10;;;;;;;7.35;2.03;;;;;;;;;;5035247;28;20095;-70
2023/05/20 10:09:49;;;;;;;8.57;2.10;;;;;;;;;;5035392;28;20045;-70
2023/05/20 10:12:15;;;;;;;8.02;1.90;;;;;;;;;;5050701;28;20052;-69
2023/05/20 10:14:53;;;;;;;8.32;2.17;;;;;;;;;;5048742;28;20045;-69
2023/05/20 10:17:23;;;;;;;6.47;1.90;;;;;;;;;;5034985;28;20048;-70
2023/05/20 10:19:49;;;;;;;6.27;2.10;;;;;;;;;;5035041;28;20104;-70
2023/05/20 10:22:26;;;;;;;7.45;1.98;;;;;;;;;;5035134;28;20782;-70
2023/05/20 10:24:57;;;;;;;8.57;1.70;;;;;;;;;;5017415;28;20053;-69
2023/05/20 10:27:23;;;;;;;;;;;;;;;;;;5053725;28;20048;-69
2023/05/20 10:29:50;;;;;;;7.07;1.80;;;;;;;;;;5054811;28;19921;-70
2023/05/20 10:32:30;;;;;;;7.90;1.98;;;;;;;;;;5037095;28;20051;-69
2023/05/20 10:35:03;;;;;;;6.18;1.88;;;;;;;;;;5035923;28;20063;-69
2023/05/20 10:37:39;;;;;;;9.13;1.98;;;;;;;;;;5054939;28;20171;-70
2023/05/20 10:40:13;;;;;;;4.80;1.77;;;;;;;;;;5054932;28;20140;-70
2023/05/20 10:42:39;;;;;;;5.68;1.90;;;;;;;;;;5054988;28;20045;-70
2023/05/20 10:45:08;;;;;;;5.20;2.20;;;;;;;;;;5054492;28;20479;-70
2023/05/20 10:47:35;;;;;;;8.15;2.28;;;;;;;;;;5040122;28;20053;-69
2023/05/20 10:50:03;;;;;;;8.75;1.80;;;;;;;;;;5026841;28;20056;-69
2023/05/20 10:52:33;;;;;;;6.90;1.80;;;;;;;;;;5034574;28;20069;-70
2023/05/20 10:55:00;;;;;;;4.95;1.60;;;;;;;;;;5034905;28;20100;-70
2023/05/20 10:57:27;;;;;;;6.97;1.70;;;;;;;;;;5034532;28;20050;-69
2023/05/20 10:59:53;;;;;;;5.22;1.80;;;;;;;;;;5034286;28;20061;-70
2023/05/20 11:02:25;;;;;;;5.45;2.38;;;;;;;;;;5044124;28;20120;-70
2023/05/20 11:04:52;;;;;;;7.07;2.30;;;;;;;;;;5053344;28;20041;-70
2023/05/20 11:07:27;;;;;;;6.18;2.30;;;;;;;;;;5054524;28;20052;-69
2023/05/20 11:09:54;;;;;;;7.88;2.55;;;;;;;;;;5054210;28;20487;-70
2023/05/20 11:12:21;;;;;;;5.60;2.00;;;;;;;;;;5054218;28;20088;-69
2023/05/20 11:14:48;;;;;;;9.18;1.75;;;;;;;;;;5054089;28;20159;-69
2023/05/20 11:17:16;;;;;;;5.95;2.25;;;;;;;;;;5034739;28;20041;-69
2023/05/20 11:19:42;;;;;;;7.38;2.33;;;;;;;;;;5035971;28;20049;-69
2023/05/20 11:22:08;;;;;;;7.72;2.30;;;;;;;;;;5033965;28;20099;-69
2023/05/20 11:24:35;;;;;;;8.00;2.05;;;;;;;;;;5034095;28;20480;-69
2023/05/20 11:27:01;;;;;;;5.20;1.58;;;;;;;;;;5025237;28;20507;-70
2023/05/20 11:29:30;;;;;;;6.88;1.92;;;;;;;;;;5033027;28;20049;-69
2023/05/20 11:31:57;;;;;;;5.63;2.00;;;;;;;;;;5028313;28;20119;-70
2023/05/20 11:34:23;;;;;;;8.00;2.17;;;;;;;;;;5033867;28;20053;-70
2023/05/20 11:36:56;;;;;;;4.82;1.70;;;;;;;;;;5033598;28;20741;-70
2023/05/20 11:39:22;;;;;;;7.47;2.22;;;;;;;;;;5007506;28;20038;-70
2023/05/20 11:41:48;;;;;;;5.93;2.22;;;;;;;;;;5014007;28;20554;-69
2023/05/20 11:44:14;;;;;;;7.13;2.53;;;;;;;;;;5013826;28;20068;-71
2023/05/20 11:46:41;;;;;;;6.20;2.17;;;;;;;;;;5041221;28;20049;-70
2023/05/20 11:49:07;;;;;;;4.82;1.85;;;;;;;;;;5044231;28;20124;-70
2023/05/20 11:51:33;;;;;;;5.80;2.03;;;;;;;;;;5033753;28;20136;-70
2023/05/20 11:54:03;;;;;;;5.05;1.90;;;;;;;;;;5033710;28;20045;-70
2023/05/20 11:56:30;;;;;;;5.88;2.22;;;;;;;;;;5013734;28;20041;-70
2023/05/20 11:58:57;;;;;;;5.28;1.88;;;;;;;;;;5031145;28;20041;-69
2023/05/20 12:01:23;;;;;;;6.15;2.20;;;;;;;;;;5031689;28;20514;-73
2023/05/20 12:03:49;;;;;;;7.03;2.00;;;;;;;;;;5019558;28;20120;-73
2023/05/20 12:06:16;;;;;;;6.95;2.00;;;;;;;;;;5028411;28;20045;-71
2023/05/20 12:08:42;;;;;;;4.25;1.90;;;;;;;;;;5028332;28;20041;-71
2023/05/20 12:11:08;;;;;;;3.97;1.58;;;;;;;;;;5033394;28;20117;-71
2023/05/20 12:13:34;;;;;;;6.18;1.77;;;;;;;;;;5031713;28;20037;-70
2023/05/20 12:16:01;;;;;;;5.78;1.85;;;;;;;;;;5023910;28;20060;-70
2023/05/20 12:18:27;;;;;;;4.90;2.10;;;;;;;;;;5032998;28;20073;-70
2023/05/20 12:20:53;;;;;;;7.97;1.90;;;;;;;;;;5032919;28;20054;-70
2023/05/20 12:23:28;;;;;;;5.25;1.90;;;;;;;;;;5032769;28;20045;-70
2023/05/20 12:25:54;;;;;;;6.43;1.95;;;;;;;;;;5036029;28;20384;-71
2023/05/20 12:28:21;;;;;;;7.82;1.83;;;;;;;;;;5016855;28;20084;-70
2023/05/20 12:30:47;;;;;;;7.05;2.22;;;;;;;;;;5015113;28;20050;-70
2023/05/20 12:33:13;;;;;;;4.57;1.85;;;;;;;;;;5029056;28;20042;-70
2023/05/20 12:35:40;;;;;;;5.55;1.60;;;;;;;;;;5032215;28;20053;-71
2023/05/20 12:38:06;;;;;;;8.43;1.90;;;;;;;;;;5036580;28;20110;-71
2023/05/20 12:40:33;;;;;;;8.70;2.72;;;;;;;;;;5049686;28;20102;-71
2023/05/20 12:43:00;;;;;;;10.43;1.70;;;;;;;;;;5052824;28;20094;-71
2023/05/20 12:45:26;;;;;;;7.18;1.80;;;;;;;;;;5034095;28;20065;-71
2023/05/20 12:47:52;;;;;;;6.75;2.20;;;;;;;;;;5032531;28;20486;-70
2023/05/20 12:50:18;;;;;;;5.00;2.03;;;;;;;;;;5032399;28;20107;-70
2023/05/20 12:52:44;;;;;;;4.35;1.80;;;;;;;;;;5041617;28;20036;-70
2023/05/20 12:55:13;;;;;;;6.60;1.70;;;;;;;;;;5040609;28;20072;-70
2023/05/20 12:57:40;;;;;;;5.32;1.90;;;;;;;;;;5034588;28;20041;-70
2023/05/20 13:00:07;;;;;;;13.30;2.10;;;;;;;;;;5030762;28;20083;-70
2023/05/20 13:02:33;;;;;;;6.25;1.90;;;;;;;;;;5029306;28;20491;-70
2023/05/20 13:04:59;;;;;;;5.15;2.08;;;;;;;;;;5043574;28;20086;-71
2023/05/20 13:07:25;;;;;;;7.03;2.03;;;;;;;;;;5037083;28;20046;-71
2023/05/20 13:09:52;;;;;;;8.85;1.98;;;;;;;;;;5031267;28;20191;-71
2023/05/20 13:12:18;;;;;;;8.52;2.30;;;;;;;;;;5031800;28;20088;-71
2023/05/20 13:14:44;;;;;;;6.90;2.50;;;;;;;;;;5031837;28;20365;-70
2023/05/20 13:17:11;;;;;;;5.53;2.03;;;;;;;;;;5031993;28;20041;-70
2023/05/20 13:19:37;;;;;;;7.40;1.65;;;;;;;;;;5021534;28;20496;-72
2023/05/20 13:22:04;;;;;;;4.63;1.50;;;;;;;;;;5040729;28;20049;-70
2023/05/20 13:24:30;;;;;;;18.23;2.40;;;;;;;;;;5030266;28;20117;-70
2023/05/20 13:26:56;;;;;;;7.05;2.03;;;;;;;;;;5038831;28;20041;-70
2023/05/20 13:29:22;;;;;;;4.93;1.73;;;;;;;;;;5031889;28;20060;-70
2023/05/20 13:31:49;;;;;;;6.13;1.75;;;;;;;;;;5031974;28;20053;-70
2023/05/20 13:34:15;;;;;;;5.20;1.85;;;;;;;;;;5026735;28;20057;-70
2023/05/20 13:36:41;;;;;;;6.38;1.88;;;;;;;;;;5012207;28;20496;-71
2023/05/20 13:39:07;;;;;;;8.25;1.95;;;;;;;;;;5012137;28;20046;-72
2023/05/20 13:41:33;;;;;;;8.63;2.42;;;;;;;;;;5012162;28;20081;-72
2023/05/20 13:43:59;;;;;;;6.78;1.85;;;;;;;;;;5012115;28;20510;-72
2023/05/20 13:46:25;;;;;;;6.95;2.08;;;;;;;;;;4994349;28;20061;-71
2023/05/20 13:48:51;;;;;;;4.78;1.80;;;;;;;;;;5030120;28;20534;-70
2023/05/20 13:51:17;;;;;;;6.70;1.95;;;;;;;;;;5031371;28;20430;-70
2023/05/20 13:53:43;;;;;;;7.43;1.85;;;;;;;;;;5011939;28;20050;-71
2023/05/20 13:56:09;;;;;;;5.03;1.70;;;;;;;;;;5012507;28;20057;-70
2023/05/20 13:58:36;;;;;;;5.97;1.63;;;;;;;;;;5031097;28;20428;-70
2023/05/20 14:01:05;;;;;;;8.23;2.38;;;;;;;;;;5031399;28;20126;-70
2023/05/20 14:03:36;;;;;;;8.02;2.03;;;;;;;;;;5028935;28;20041;-70
2023/05/20 14:06:02;;;;;;;6.55;2.72;;;;;;;;;;5031796;28;20048;-70
2023/05/20 14:08:28;;;;;;;8.45;1.90;;;;;;;;;;5024706;28;20068;-70
2023/05/20 14:10:54;;;;;;;7.35;2.05;;;;;;;;;;5042199;28;20044;-71
2023/05/20 14:13:24;;;;;;;6.25;1.88;;;;;;;;;;5047486;28;20048;-70
2023/05/20 14:15:50;;;;;;;6.00;2.20;;;;;;;;;;5030930;28;20038;-70
2023/05/20 14:18:17;;;;;;;7.32;3.67;;;;;;;;;;5031093;28;20042;-70
2023/05/20 14:20:43;;;;;;;7.28;1.80;;;;;;;;;;5029491;28;20438;-70
2023/05/20 14:23:09;;;;;;;7.00;2.60;;;;;;;;;;5029639;28;20042;-70
2023/05/20 14:25:35;;;;;;;8.85;2.40;;;;;;;;;;5029378;28;20049;-70
2023/05/20 14:28:01;;;;;;;7.85;2.28;;;;;;;;;;5011703;28;20077;-70
2023/05/20 14:30:27;;;;;;;6.43;1.98;;;;;;;;;;5017076;28;20049;-70
2023/05/20 14:32:53;;;;;;;6.78;2.00;;;;;;;;;;5029513;28;20094;-70
2023/05/20 14:35:19;;;;;;;7.15;2.10;;;;;;;;;;5030355;28;20530;-70
2023/05/20 14:37:46;;;;;;;7.05;2.10;;;;;;;;;;5042871;28;20069;-70